Map

Track Data

SID SEASON NUMBER BASIN SUBBASIN NAME ISO_TIME NATURE LAT LON WMO_WIND WMO_PRES WMO_AGENCY TRACK_TYPE DIST2LAND LANDFALL IFLAG USA_AGENCY USA_ATCF_ID USA_LAT USA_LON USA_RECORD USA_STATUS USA_WIND USA_PRES USA_SSHS USA_R34_NE USA_R34_SE USA_R34_SW USA_R34_NW USA_R50_NE USA_R50_SE USA_R50_SW USA_R50_NW USA_R64_NE USA_R64_SE USA_R64_SW USA_R64_NW USA_POCI USA_ROCI USA_RMW USA_EYE TOKYO_LAT TOKYO_LON TOKYO_GRADE TOKYO_WIND TOKYO_PRES TOKYO_R50_DIR TOKYO_R50_LONG TOKYO_R50_SHORT TOKYO_R30_DIR TOKYO_R30_LONG TOKYO_R30_SHORT TOKYO_LAND CMA_LAT CMA_LON CMA_CAT CMA_WIND CMA_PRES HKO_LAT HKO_LON HKO_CAT HKO_WIND HKO_PRES NEWDELHI_LAT NEWDELHI_LON NEWDELHI_GRADE NEWDELHI_WIND NEWDELHI_PRES NEWDELHI_CI NEWDELHI_DP NEWDELHI_POCI REUNION_LAT REUNION_LON REUNION_TYPE REUNION_WIND REUNION_PRES REUNION_TNUM REUNION_CI REUNION_RMW REUNION_R34_NE REUNION_R34_SE REUNION_R34_SW REUNION_R34_NW REUNION_R50_NE REUNION_R50_SE REUNION_R50_SW REUNION_R50_NW REUNION_R64_NE REUNION_R64_SE REUNION_R64_SW REUNION_R64_NW BOM_LAT BOM_LON BOM_TYPE BOM_WIND BOM_PRES BOM_TNUM BOM_CI BOM_RMW BOM_R34_NE BOM_R34_SE BOM_R34_SW BOM_R34_NW BOM_R50_NE BOM_R50_SE BOM_R50_SW BOM_R50_NW BOM_R64_NE BOM_R64_SE BOM_R64_SW BOM_R64_NW BOM_ROCI BOM_POCI BOM_EYE BOM_POS_METHOD BOM_PRES_METHOD NADI_LAT NADI_LON NADI_CAT NADI_WIND NADI_PRES WELLINGTON_LAT WELLINGTON_LON WELLINGTON_WIND WELLINGTON_PRES DS824_LAT DS824_LON DS824_STAGE DS824_WIND DS824_PRES TD9636_LAT TD9636_LON TD9636_STAGE TD9636_WIND TD9636_PRES TD9635_LAT TD9635_LON TD9635_WIND TD9635_PRES TD9635_ROCI NEUMANN_LAT NEUMANN_LON NEUMANN_CLASS NEUMANN_WIND NEUMANN_PRES MLC_LAT MLC_LON MLC_CLASS MLC_WIND MLC_PRES USA_GUST BOM_GUST BOM_GUST_PER REUNION_GUST REUNION_GUST_PER USA_SEAHGT USA_SEARAD_NE USA_SEARAD_SE USA_SEARAD_SW USA_SEARAD_NW STORM_SPEED STORM_DIR
1996046S14087 1996 12 SI MM NOT_NAMED 1996-02-14 18:00:00 TS -14.2000 86.7000 main 1939 1939 O___________O_ jtwc_sh SH151996 -14.2000 86.7000 20 -1 -14.2000 86.7000 TC 20 10 265
1996046S14087 1996 12 SI MM NOT_NAMED 1996-02-14 21:00:00 TS -14.2427 86.1900 main 1977 1977 P___________P_ SH151996 -14.2427 86.1900 22 -1 -14.2427 86.1900 TC 22 10 264
1996046S14087 1996 12 SI MM NOT_NAMED 1996-02-15 00:00:00 TS -14.3000 85.7000 main 2024 2024 O___________O_ jtwc_sh SH151996 -14.3000 85.7000 25 -1 -14.3000 85.7000 TC 25 9 261
1996046S14087 1996 12 SI MM NOT_NAMED 1996-02-15 03:00:00 TS -14.3849 85.2425 main 2071 2071 P___________P_ SH151996 -14.3849 85.2425 25 -1 -14.3849 85.2425 TC 25 9 257
1996046S14087 1996 12 SI MM NOT_NAMED 1996-02-15 06:00:00 TS -14.5000 84.8000 main 2111 2111 O___________O_ jtwc_sh SH151996 -14.5000 84.8000 25 -1 -14.5000 84.8000 TC 25 9 254
1996046S14087 1996 12 SI MM NOT_NAMED 1996-02-15 09:00:00 TS -14.6274 84.3574 main 2151 2151 P___________P_ SH151996 -14.6274 84.3574 27 -1 -14.6274 84.3574 TC 27 9 251
1996046S14087 1996 12 SI MM NOT_NAMED 1996-02-15 12:00:00 TS -14.8000 83.9000 main 2206 2206 O___________O_ jtwc_sh SH151996 -14.8000 83.9000 30 -1 -14.8000 83.9000 TC 30 10 248
1996046S14087 1996 12 SI MM NOT_NAMED 1996-02-15 15:00:00 TS -15.0050 83.3998 main 2262 2262 P___________P_ SH151996 -15.0050 83.3998 32 -1 -15.0050 83.3998 TC 32 11 243
1996046S14087 1996 12 SI MM NOT_NAMED 1996-02-15 18:00:00 TS -15.3000 82.9000 main 2325 2325 O___________O_ jtwc_sh SH151996 -15.3000 82.9000 35 0 -15.3000 82.9000 TC 35 12 234
1996046S14087 1996 12 SI MM NOT_NAMED 1996-02-15 21:00:00 TS -15.6975 82.4274 main 2394 2394 P___________P_ SH151996 -15.6975 82.4274 35 0 -15.6975 82.4274 TC 35 13 224
1996046S14087 1996 12 SI MM NOT_NAMED 1996-02-16 00:00:00 TS -16.2000 82.0000 main 2463 2463 O___________O_ jtwc_sh SH151996 -16.2000 82.0000 35 0 -16.2000 82.0000 TC 35 14 216
1996046S14087 1996 12 SI MM NOT_NAMED 1996-02-16 03:00:00 TS -16.8225 81.5829 main 2537 2492 P___________P_ SH151996 -16.8225 81.5829 35 0 -16.8225 81.5829 TC 35 14 209
1996046S14087 1996 12 SI MM NOT_NAMED 1996-02-16 06:00:00 TS -17.4000 81.3000 main 2492 2473 O___________O_ jtwc_sh SH151996 -17.4000 81.3000 35 0 -17.4000 81.3000 TC 35 10 199
1996046S14087 1996 12 SI MM NOT_NAMED 1996-02-16 09:00:00 TS -17.7674 81.2396 main 2473 2473 P___________P_ SH151996 -17.7674 81.2396 32 -1 -17.7674 81.2396 TC 32 6 179
1996046S14087 1996 12 SI MM NOT_NAMED 1996-02-16 12:00:00 TS -18.0000 81.3000 main 2479 2476 O___________O_ jtwc_sh SH151996 -18.0000 81.3000 30 -1 -18.0000 81.3000 TC 30 4 167
1996046S14087 1996 12 SI MM NOT_NAMED 1996-02-16 15:00:00 TS -18.1725 81.3350 main 2476 2476 P___________P_ SH151996 -18.1725 81.3350 30 -1 -18.1725 81.3350 TC 30 3 163
1996046S14087 1996 12 SI MM NOT_NAMED 1996-02-16 18:00:00 TS -18.3000 81.4000 main 2484 2482 O___________O_ jtwc_sh SH151996 -18.3000 81.4000 30 -1 -18.3000 81.4000 TC 30 3 152
1996046S14087 1996 12 SI MM NOT_NAMED 1996-02-16 21:00:00 TS -18.4500 81.4925 main 2491 2491 P___________P_ SH151996 -18.4500 81.4925 27 -1 -18.4500 81.4925 TC 27 4 148
1996046S14087 1996 12 SI MM NOT_NAMED 1996-02-17 00:00:00 TS -18.6000 81.6000 main 2500 2498 O___________O_ jtwc_sh SH151996 -18.6000 81.6000 25 -1 -18.6000 81.6000 TC 25 4 146
1996046S14087 1996 12 SI MM NOT_NAMED 1996-02-17 03:00:00 TS -18.7450 81.6959 main 2509 2507 P___________P_ SH151996 -18.7425 81.6926 25 -1 -18.7500 81.7025 TC 25 4 148
1996046S14087 1996 12 SI MM NOT_NAMED 1996-02-17 06:00:00 TS -18.9000 81.8000 main 2516 2515 O___________O_ jtwc_sh SH151996 -18.9000 81.8000 25 -1 -18.9000 81.8000 TC 25 4 146
1996046S14087 1996 12 SI MM NOT_NAMED 1996-02-17 09:00:00 NR -19.0900 81.9399 main 2524 2524 P_____________ SH151996 -19.0900 81.9399 25 -1 TC 5 145
1996046S14087 1996 12 SI MM NOT_NAMED 1996-02-17 12:00:00 NR -19.3000 82.1000 main 2542 O_____________ jtwc_sh SH151996 -19.3000 82.1000 25 -1 5 144

About IBTrACS Database

This database is a web-friendly format of International Best Track Archive for Climate Stewardship (IBTrACS), a global best track data archive curated by NOAA dating back to 1842.

Updated: 2021-12-01